Rio Pardo, Brazil
Current Conditions -  °F | °C
As of 11:00 AM on Tuesday 21 Oct 2014 (Local Time) from SBPA Reporting Station
Broken Clouds Broken Clouds  
Wind Chill: 68°   Ceiling: 3000
Heat Index: 68°   Visibility: 6mi
Dew Point: 57°   Wind: 13mph
Humidity: 68%   Direction: 90°E
Pressure: 30.21"   Gusts: NA
Location:  29.99°S, 52.38°W
Report Text: SBPA 211300Z 09011KT 9999 BKN030 20/14 Q1023
Loading
Personal Weather Stations






























Interactive Weather Map
Tropical Storm Tracking
New forecast layout! Learn more

10-Day Weather Forecast

Advertisements
Track Severe Weather on mobile